Time;durP1;ratioP1;P1;durP2;ratioP2;P2;SDS_P1;SDS_P2;PMS_P1;PMS_P2;Temp;Humidity;BMP_temperature;BMP_pressure;BME280_temperature;BME280_humidity;BME280_pressure;Samples;Min_cycle;Max_cycle;Signal;HPM_P1;HPM_P2
2023/02/01 00:01:33;;;;;;;7.88;2.33;;;;;;;;;;5054434;28;20144;-86
2023/02/01 00:04:00;;;;;;;6.13;2.03;;;;;;;;;;5054169;28;20052;-86
2023/02/01 00:06:27;;;;;;;3.63;2.00;;;;;;;;;;5053590;28;20049;-87
2023/02/01 00:08:55;;;;;;;5.07;2.35;;;;;;;;;;5053188;28;20057;-86
2023/02/01 00:11:23;;;;;;;7.10;2.28;;;;;;;;;;5053967;28;20044;-86
2023/02/01 00:13:50;;;;;;;6.72;1.80;;;;;;;;;;5052944;28;20080;-86
2023/02/01 00:16:19;;;;;;;5.88;2.10;;;;;;;;;;5053646;28;20140;-86
2023/02/01 00:18:47;;;;;;;9.45;2.58;;;;;;;;;;5052926;28;20056;-86
2023/02/01 00:21:15;;;;;;;9.30;1.90;;;;;;;;;;5053057;28;20049;-86
2023/02/01 00:23:43;;;;;;;5.72;1.90;;;;;;;;;;5054192;28;20048;-86
2023/02/01 00:26:17;;;;;;;5.63;1.95;;;;;;;;;;5064037;28;20044;-86
2023/02/01 00:28:45;;;;;;;8.73;2.47;;;;;;;;;;5058009;28;20482;-86
2023/02/01 00:31:14;;;;;;;6.32;2.45;;;;;;;;;;5053899;28;20136;-86
2023/02/01 00:33:42;;;;;;;4.60;2.40;;;;;;;;;;5052418;28;20053;-86
2023/02/01 00:36:10;;;;;;;7.15;2.10;;;;;;;;;;5052462;28;20490;-86
2023/02/01 00:38:38;;;;;;;10.00;2.42;;;;;;;;;;5053785;28;20045;-86
2023/02/01 00:41:07;;;;;;;8.13;2.65;;;;;;;;;;5052244;28;20388;-86
2023/02/01 00:43:38;;;;;;;8.30;2.67;;;;;;;;;;5052565;28;20044;-86
2023/02/01 00:46:05;;;;;;;14.95;3.25;;;;;;;;;;5052336;28;20400;-86
2023/02/01 00:48:32;;;;;;;3.50;2.35;;;;;;;;;;5052440;28;20049;-86
2023/02/01 00:51:00;;;;;;;5.90;2.47;;;;;;;;;;5052098;28;20132;-86
2023/02/01 00:53:28;;;;;;;8.77;2.35;;;;;;;;;;5053302;28;20128;-86
2023/02/01 00:55:56;;;;;;;4.13;2.80;;;;;;;;;;5053444;28;20485;-85
2023/02/01 00:58:25;;;;;;;8.88;2.55;;;;;;;;;;5052129;28;20501;-86
2023/02/01 01:01:06;;;;;;;5.97;2.55;;;;;;;;;;5052243;28;20413;-86
2023/02/01 01:03:34;;;;;;;8.55;2.88;;;;;;;;;;5053265;28;20107;-86
2023/02/01 01:06:03;;;;;;;6.28;2.55;;;;;;;;;;5053036;28;20051;-86
2023/02/01 01:08:30;;;;;;;9.45;2.50;;;;;;;;;;5052054;28;20056;-86
2023/02/01 01:10:58;;;;;;;6.65;2.53;;;;;;;;;;5053127;28;20045;-86
2023/02/01 01:13:25;;;;;;;4.80;2.28;;;;;;;;;;5052044;28;20045;-86
2023/02/01 01:15:52;;;;;;;7.32;2.70;;;;;;;;;;5051965;28;20459;-86
2023/02/01 01:18:19;;;;;;;5.20;2.22;;;;;;;;;;5051343;28;20061;-86
2023/02/01 01:20:48;;;;;;;5.68;2.10;;;;;;;;;;5052146;28;20045;-85
2023/02/01 01:23:15;;;;;;;5.95;2.67;;;;;;;;;;5051932;28;20056;-86
2023/02/01 01:25:43;;;;;;;9.27;2.78;;;;;;;;;;5052003;28;20052;-85
2023/02/01 01:28:10;;;;;;;5.63;3.10;;;;;;;;;;5052077;28;20056;-86
2023/02/01 01:30:38;;;;;;;9.43;3.15;;;;;;;;;;5053157;28;20053;-86
2023/02/01 01:33:05;;;;;;;9.85;2.65;;;;;;;;;;5051626;28;20467;-86
2023/02/01 01:35:33;;;;;;;9.50;3.05;;;;;;;;;;5051913;28;20405;-86
2023/02/01 01:38:00;;;;;;;13.00;2.63;;;;;;;;;;5052551;28;20130;-87
2023/02/01 01:40:28;;;;;;;7.63;2.50;;;;;;;;;;5067595;28;20035;-86
2023/02/01 01:42:56;;;;;;;6.28;2.25;;;;;;;;;;5053725;28;20059;-86
2023/02/01 01:45:23;;;;;;;5.82;1.90;;;;;;;;;;5051429;28;20132;-85
2023/02/01 01:47:58;;;;;;;9.52;2.47;;;;;;;;;;5051787;28;20486;-86
2023/02/01 01:50:28;;;;;;;6.72;2.25;;;;;;;;;;5052253;28;20052;-85
2023/02/01 01:52:57;;;;;;;7.95;2.45;;;;;;;;;;5052568;28;20140;-86
2023/02/01 01:55:25;;;;;;;7.25;2.22;;;;;;;;;;5052718;28;20057;-86
2023/02/01 01:58:05;;;;;;;9.82;2.50;;;;;;;;;;5051708;28;20504;-86
2023/02/01 02:00:33;;;;;;;9.88;2.58;;;;;;;;;;5051698;28;20076;-85
2023/02/01 02:03:07;;;;;;;10.98;2.40;;;;;;;;;;5052605;28;20497;-85
2023/02/01 02:05:35;;;;;;;10.15;2.72;;;;;;;;;;5052759;28;20068;-86
2023/02/01 02:08:02;;;;;;;9.90;2.85;;;;;;;;;;5052559;28;20052;-87
2023/02/01 02:13:18;;;;;;;6.13;2.05;;;;;;;;;;5052265;28;20047;-85
2023/02/01 02:16:00;;;;;;;7.50;2.70;;;;;;;;;;5051948;28;20141;-86
2023/02/01 02:18:33;;;;;;;10.50;2.28;;;;;;;;;;5052578;28;20069;-85
2023/02/01 02:21:11;;;;;;;12.17;2.27;;;;;;;;;;5051590;28;20394;-86
2023/02/01 02:23:41;;;;;;;9.38;2.08;;;;;;;;;;5052782;28;20063;-86
2023/02/01 02:26:14;;;;;;;10.25;3.00;;;;;;;;;;5051629;28;20059;-86
2023/02/01 02:28:41;;;;;;;;;;;;;;;;;;5052696;28;20052;-85
2023/02/01 02:31:28;;;;;;;8.10;2.72;;;;;;;;;;5055380;28;19958;-86
2023/02/01 02:34:03;;;;;;;5.15;2.00;;;;;;;;;;5054884;28;20049;-85
2023/02/01 02:36:38;;;;;;;9.00;2.80;;;;;;;;;;5055093;28;20171;-86
2023/02/01 02:39:22;;;;;;;13.80;2.45;;;;;;;;;;5054792;28;20049;-85
2023/02/01 02:48:12;;;;;;;8.73;2.70;;;;;;;;;;5047181;28;20049;-85
2023/02/01 03:04:45;;;;;;;10.00;2.88;;;;;;;;;;5055596;28;20110;-84
2023/02/01 03:07:33;;;;;;;10.75;3.08;;;;;;;;;;5054095;28;20404;-85
2023/02/01 03:10:04;;;;;;;11.38;2.95;;;;;;;;;;5024525;28;20135;-85
2023/02/01 03:15:22;;;;;;;10.15;3.92;;;;;;;;;;5055008;28;20136;-85
2023/02/01 03:17:50;;;;;;;9.85;3.40;;;;;;;;;;5053953;28;20088;-85
2023/02/01 03:20:19;;;;;;;14.35;4.20;;;;;;;;;;5053735;28;20103;-85
2023/02/01 03:22:49;;;;;;;11.25;3.65;;;;;;;;;;5053882;28;20045;-85
2023/02/01 03:25:19;;;;;;;10.27;3.58;;;;;;;;;;5053730;28;20128;-87
2023/02/01 03:27:54;;;;;;;12.63;4.18;;;;;;;;;;5053556;28;20143;-86
2023/02/01 03:30:30;;;;;;;14.82;4.55;;;;;;;;;;5053946;28;20132;-87
2023/02/01 03:32:59;;;;;;;14.32;4.00;;;;;;;;;;5054578;28;20049;-86
2023/02/01 03:35:29;;;;;;;14.52;4.35;;;;;;;;;;5053775;28;20045;-87
2023/02/01 03:38:23;;;;;;;13.05;4.13;;;;;;;;;;5054607;28;20501;-87
2023/02/01 03:41:02;;;;;;;13.13;4.13;;;;;;;;;;5050672;28;20053;-86
2023/02/01 03:43:34;;;;;;;14.40;4.28;;;;;;;;;;5053762;28;20055;-87
2023/02/01 03:46:03;;;;;;;13.57;3.85;;;;;;;;;;5054364;28;20131;-86
2023/02/01 03:48:31;;;;;;;20.00;4.63;;;;;;;;;;5053211;28;20099;-86
2023/02/01 03:51:02;;;;;;;16.08;4.13;;;;;;;;;;5054362;28;20436;-86
2023/02/01 03:53:29;;;;;;;8.23;3.83;;;;;;;;;;5053364;28;20080;-86
2023/02/01 03:55:57;;;;;;;13.50;4.40;;;;;;;;;;5052845;28;20071;-86
2023/02/01 03:58:24;;;;;;;16.23;4.57;;;;;;;;;;5053352;28;20451;-87
2023/02/01 04:00:54;;;;;;;12.65;3.78;;;;;;;;;;5054059;28;20087;-86
2023/02/01 04:03:21;;;;;;;9.40;3.63;;;;;;;;;;5053024;28;20057;-86
2023/02/01 04:05:49;;;;;;;14.48;4.25;;;;;;;;;;5062141;28;20096;-86
2023/02/01 04:08:18;;;;;;;14.02;3.85;;;;;;;;;;5060820;28;20409;-87
2023/02/01 04:10:45;;;;;;;7.88;3.65;;;;;;;;;;5052585;28;20071;-87
2023/02/01 04:13:12;;;;;;;10.95;3.42;;;;;;;;;;5052400;28;20132;-86
2023/02/01 04:15:40;;;;;;;11.18;3.95;;;;;;;;;;5052586;28;20053;-86
2023/02/01 04:18:07;;;;;;;11.73;4.00;;;;;;;;;;5053888;28;20047;-86
2023/02/01 04:20:34;;;;;;;12.73;4.38;;;;;;;;;;5053748;28;20052;-87
2023/02/01 04:23:04;;;;;;;12.07;4.32;;;;;;;;;;5053807;28;20128;-86
2023/02/01 04:25:31;;;;;;;14.23;3.47;;;;;;;;;;5052618;28;20061;-87
2023/02/01 04:27:59;;;;;;;10.43;3.90;;;;;;;;;;5052268;28;20041;-86
2023/02/01 04:30:26;;;;;;;11.00;3.33;;;;;;;;;;5052520;28;20073;-86
2023/02/01 04:32:53;;;;;;;9.65;3.50;;;;;;;;;;5052562;28;20051;-87
2023/02/01 04:35:21;;;;;;;9.90;3.20;;;;;;;;;;5052617;28;20049;-86
2023/02/01 04:37:49;;;;;;;9.68;3.22;;;;;;;;;;5053634;28;20095;-85
2023/02/01 04:40:16;;;;;;;10.15;3.05;;;;;;;;;;5052285;28;20074;-85
2023/02/01 04:42:43;;;;;;;8.57;2.28;;;;;;;;;;5051850;28;20056;-87
2023/02/01 04:45:11;;;;;;;9.38;2.97;;;;;;;;;;5052231;28;20053;-87
2023/02/01 04:47:38;;;;;;;10.45;2.65;;;;;;;;;;5052417;28;20490;-86
2023/02/01 04:50:05;;;;;;;6.07;2.63;;;;;;;;;;5051950;28;20059;-86
2023/02/01 04:52:33;;;;;;;10.13;3.35;;;;;;;;;;5051676;28;20079;-86
2023/02/01 04:55:01;;;;;;;10.93;3.00;;;;;;;;;;5051809;28;20059;-86
2023/02/01 04:57:29;;;;;;;11.32;2.90;;;;;;;;;;5052326;28;20319;-87
2023/02/01 04:59:56;;;;;;;11.82;3.28;;;;;;;;;;5052233;28;20057;-86
2023/02/01 05:02:23;;;;;;;10.18;3.05;;;;;;;;;;5053155;28;20047;-86
2023/02/01 05:04:50;;;;;;;13.65;3.22;;;;;;;;;;5051973;28;20067;-85
2023/02/01 05:07:18;;;;;;;11.55;2.80;;;;;;;;;;5051991;28;20475;-85
2023/02/01 05:09:45;;;;;;;8.23;2.85;;;;;;;;;;5052947;28;20144;-87
2023/02/01 05:14:58;;;;;;;7.97;2.75;;;;;;;;;;5052683;28;20136;-86
2023/02/01 05:17:25;;;;;;;10.48;2.55;;;;;;;;;;5053151;28;20124;-86
2023/02/01 05:19:52;;;;;;;10.15;2.92;;;;;;;;;;5065359;28;20069;-87
2023/02/01 05:22:20;;;;;;;10.07;3.30;;;;;;;;;;5052159;28;20151;-86
2023/02/01 05:24:47;;;;;;;10.98;3.28;;;;;;;;;;5052006;28;20045;-87
2023/02/01 05:27:14;;;;;;;11.93;3.28;;;;;;;;;;5051920;28;20141;-86
2023/02/01 05:29:41;;;;;;;10.02;3.13;;;;;;;;;;5051665;28;20049;-87
2023/02/01 05:32:10;;;;;;;10.07;3.30;;;;;;;;;;5051650;28;20048;-86
2023/02/01 05:34:48;;;;;;;9.15;3.35;;;;;;;;;;5051710;28;20473;-87
2023/02/01 05:37:15;;;;;;;9.60;2.65;;;;;;;;;;5051853;28;20056;-86
2023/02/01 05:39:42;;;;;;;14.52;3.08;;;;;;;;;;5051924;28;20052;-87
2023/02/01 05:42:10;;;;;;;5.47;2.40;;;;;;;;;;5051468;28;20105;-85
2023/02/01 05:44:37;;;;;;;11.43;3.08;;;;;;;;;;5052690;28;20060;-86
2023/02/01 05:47:05;;;;;;;11.38;3.22;;;;;;;;;;5051466;28;20135;-86
2023/02/01 05:49:32;;;;;;;8.60;2.70;;;;;;;;;;5051393;28;20063;-86
2023/02/01 05:51:59;;;;;;;9.23;2.80;;;;;;;;;;5051618;28;20055;-86
2023/02/01 05:54:27;;;;;;;16.25;2.70;;;;;;;;;;5051396;28;20103;-86
2023/02/01 05:56:54;;;;;;;10.65;2.88;;;;;;;;;;5051605;28;20147;-86
2023/02/01 05:59:21;;;;;;;13.73;3.05;;;;;;;;;;5051359;28;20550;-86
2023/02/01 06:01:49;;;;;;;8.85;2.20;;;;;;;;;;5051738;28;20041;-87
2023/02/01 06:04:16;;;;;;;6.70;2.70;;;;;;;;;;5052842;28;20057;-86
2023/02/01 06:06:43;;;;;;;9.65;2.47;;;;;;;;;;5055297;28;20059;-86
2023/02/01 06:09:10;;;;;;;9.35;2.85;;;;;;;;;;5055219;28;20048;-87
2023/02/01 06:11:37;;;;;;;8.75;2.30;;;;;;;;;;5055216;28;20079;-86
2023/02/01 06:14:07;;;;;;;7.05;2.40;;;;;;;;;;5054244;28;20052;-87
2023/02/01 06:16:35;;;;;;;5.22;2.38;;;;;;;;;;5055314;28;20099;-87
2023/02/01 06:19:02;;;;;;;7.22;2.15;;;;;;;;;;5054944;28;20065;-86
2023/02/01 06:21:29;;;;;;;15.45;4.10;;;;;;;;;;5055043;28;20044;-86
2023/02/01 06:23:57;;;;;;;11.05;2.78;;;;;;;;;;5054966;28;20072;-87
2023/02/01 06:26:25;;;;;;;13.25;2.60;;;;;;;;;;5054948;28;20052;-86
2023/02/01 06:28:52;;;;;;;10.88;2.05;;;;;;;;;;5054768;28;20053;-86
2023/02/01 06:31:20;;;;;;;8.95;2.05;;;;;;;;;;5055645;28;20055;-86
2023/02/01 06:33:48;;;;;;;15.18;5.90;;;;;;;;;;5068899;28;20103;-86
2023/02/01 06:36:15;;;;;;;10.57;3.72;;;;;;;;;;5054863;28;20139;-87
2023/02/01 06:38:43;;;;;;;12.52;2.35;;;;;;;;;;5054873;28;20045;-86
2023/02/01 06:41:10;;;;;;;5.95;1.90;;;;;;;;;;5054381;28;20080;-86
2023/02/01 06:43:38;;;;;;;9.45;2.72;;;;;;;;;;5054786;28;20059;-85
2023/02/01 06:46:06;;;;;;;9.52;2.20;;;;;;;;;;5054523;28;20087;-86
2023/02/01 06:48:34;;;;;;;9.57;2.15;;;;;;;;;;5054717;28;20049;-87
2023/02/01 06:51:01;;;;;;;9.65;2.42;;;;;;;;;;5054502;28;20136;-86
2023/02/01 06:53:31;;;;;;;9.23;2.88;;;;;;;;;;5055443;28;20424;-87
2023/02/01 06:56:00;;;;;;;14.15;2.55;;;;;;;;;;5054255;28;20045;-88
2023/02/01 06:58:31;;;;;;;11.38;2.65;;;;;;;;;;5054349;28;20489;-86
2023/02/01 07:00:59;;;;;;;11.25;2.38;;;;;;;;;;5054354;28;20048;-86
2023/02/01 07:03:26;;;;;;;12.35;2.17;;;;;;;;;;5054046;28;20049;-86
2023/02/01 07:06:00;;;;;;;8.82;2.40;;;;;;;;;;5054296;28;20056;-87
2023/02/01 07:08:28;;;;;;;6.82;1.98;;;;;;;;;;5054269;28;20076;-86
2023/02/01 07:10:56;;;;;;;9.70;2.58;;;;;;;;;;5054083;28;20064;-87
2023/02/01 07:13:23;;;;;;;16.58;3.33;;;;;;;;;;5054646;28;20136;-87
2023/02/01 07:15:50;;;;;;;6.00;2.25;;;;;;;;;;5053158;28;20461;-86
2023/02/01 07:18:17;;;;;;;12.40;2.50;;;;;;;;;;5053961;28;20044;-87
2023/02/01 07:20:50;;;;;;;9.02;2.00;;;;;;;;;;5053955;28;20049;-87
2023/02/01 07:23:20;;;;;;;6.97;2.30;;;;;;;;;;5054016;28;20045;-87
2023/02/01 07:25:48;;;;;;;10.27;3.58;;;;;;;;;;5054954;28;20132;-87
2023/02/01 07:28:15;;;;;;;27.25;2.70;;;;;;;;;;5054012;28;20092;-86
2023/02/01 07:30:42;;;;;;;14.85;2.20;;;;;;;;;;5053591;28;20481;-86
2023/02/01 07:33:10;;;;;;;11.57;2.80;;;;;;;;;;5054609;28;20107;-86
2023/02/01 07:35:37;;;;;;;11.32;3.22;;;;;;;;;;5054621;28;20076;-87
2023/02/01 07:38:04;;;;;;;14.23;3.20;;;;;;;;;;5053580;28;20052;-87
2023/02/01 07:40:31;;;;;;;8.02;2.45;;;;;;;;;;5053846;28;20053;-86
2023/02/01 07:42:59;;;;;;;4.82;1.70;;;;;;;;;;5053752;28;20060;-87
2023/02/01 07:45:26;;;;;;;8.55;2.55;;;;;;;;;;5056387;28;20059;-88
2023/02/01 07:47:54;;;;;;;11.10;4.55;;;;;;;;;;5067167;28;20057;-87
2023/02/01 07:50:21;;;;;;;9.85;2.97;;;;;;;;;;5053745;28;20404;-87
2023/02/01 07:52:49;;;;;;;10.98;4.78;;;;;;;;;;5053544;28;20474;-87
2023/02/01 07:55:16;;;;;;;8.70;2.05;;;;;;;;;;5053145;28;20044;-86
2023/02/01 07:57:43;;;;;;;12.00;2.55;;;;;;;;;;5056720;28;20598;-86
2023/02/01 08:03:01;;;;;;;10.95;2.00;;;;;;;;;;5054411;28;20409;-86
2023/02/01 08:05:28;;;;;;;6.90;1.98;;;;;;;;;;5054147;28;20574;-86
2023/02/01 08:07:55;;;;;;;8.15;1.80;;;;;;;;;;5053800;28;20413;-86
2023/02/01 08:10:22;;;;;;;11.00;2.80;;;;;;;;;;5054161;28;20056;-87
2023/02/01 08:12:51;;;;;;;5.32;1.52;;;;;;;;;;5053073;28;20406;-88
2023/02/01 08:15:19;;;;;;;8.43;2.33;;;;;;;;;;5052845;28;20052;-86
2023/02/01 08:17:47;;;;;;;6.13;1.40;;;;;;;;;;5053046;28;20049;-88
2023/02/01 08:20:14;;;;;;;6.80;2.20;;;;;;;;;;5052773;28;20091;-87
2023/02/01 08:22:42;;;;;;;9.68;2.30;;;;;;;;;;5054716;28;20048;-86
2023/02/01 08:25:11;;;;;;;7.70;1.90;;;;;;;;;;5053173;28;20052;-86
2023/02/01 08:27:38;;;;;;;11.85;2.20;;;;;;;;;;5051791;28;20052;-86
2023/02/01 08:30:07;;;;;;;12.35;2.17;;;;;;;;;;5052908;28;20053;-88
2023/02/01 08:32:34;;;;;;;7.75;2.20;;;;;;;;;;5052894;28;20060;-87
2023/02/01 08:35:01;;;;;;;6.47;1.80;;;;;;;;;;5052441;28;20105;-88
2023/02/01 08:37:28;;;;;;;8.18;2.10;;;;;;;;;;5052677;28;20084;-87
2023/02/01 08:39:56;;;;;;;9.30;2.30;;;;;;;;;;5052909;28;20056;-88
2023/02/01 08:45:09;;;;;;;9.43;2.25;;;;;;;;;;5053787;28;20120;-87
2023/02/01 08:47:36;;;;;;;8.32;2.45;;;;;;;;;;5052397;28;20052;-88
2023/02/01 08:50:04;;;;;;;7.57;1.83;;;;;;;;;;5053574;28;20139;-87
2023/02/01 08:52:31;;;;;;;9.50;2.30;;;;;;;;;;5052286;28;20049;-87
2023/02/01 08:54:58;;;;;;;8.20;1.90;;;;;;;;;;5052240;28;20055;-87
2023/02/01 08:57:25;;;;;;;12.82;2.42;;;;;;;;;;5052117;28;20041;-88
2023/02/01 08:59:52;;;;;;;8.77;1.88;;;;;;;;;;5064154;28;20059;-85
2023/02/01 09:02:20;;;;;;;7.75;1.83;;;;;;;;;;5055374;28;20060;-86
2023/02/01 09:04:47;;;;;;;5.53;1.90;;;;;;;;;;5051945;28;20077;-87
2023/02/01 09:07:14;;;;;;;7.93;1.73;;;;;;;;;;5051739;28;20049;-87
2023/02/01 09:09:42;;;;;;;12.18;3.00;;;;;;;;;;5052152;28;20401;-86
2023/02/01 09:12:09;;;;;;;10.40;4.50;;;;;;;;;;5052109;28;20052;-84
2023/02/01 09:14:36;;;;;;;11.63;2.70;;;;;;;;;;5051994;28;20048;-88
2023/02/01 09:17:05;;;;;;;11.70;5.72;;;;;;;;;;5052914;28;20048;-87
2023/02/01 09:19:32;;;;;;;8.50;3.00;;;;;;;;;;5051937;28;20493;-87
2023/02/01 09:21:59;;;;;;;8.00;3.80;;;;;;;;;;5052045;28;20059;-86
2023/02/01 09:24:27;;;;;;;7.53;2.40;;;;;;;;;;5052115;28;20053;-87
2023/02/01 09:26:54;;;;;;;11.02;1.95;;;;;;;;;;5052239;28;20127;-88
2023/02/01 09:29:22;;;;;;;8.07;2.88;;;;;;;;;;5053577;28;20052;-86
2023/02/01 09:31:49;;;;;;;8.77;2.55;;;;;;;;;;5053591;28;20045;-88
2023/02/01 09:34:29;;;;;;;4.90;1.38;;;;;;;;;;5053496;28;20638;-87
2023/02/01 09:36:57;;;;;;;8.15;2.05;;;;;;;;;;5053025;28;20448;-86
2023/02/01 09:39:24;;;;;;;6.75;1.85;;;;;;;;;;5056923;28;20404;-87
2023/02/01 09:41:52;;;;;;;12.20;2.47;;;;;;;;;;5056736;28;20136;-87
2023/02/01 09:44:25;;;;;;;6.60;2.00;;;;;;;;;;5058734;28;20084;-86
2023/02/01 09:46:59;;;;;;;8.45;2.35;;;;;;;;;;5057900;28;20473;-89
2023/02/01 09:49:31;;;;;;;6.82;1.88;;;;;;;;;;5056780;28;20059;-87
2023/02/01 09:52:01;;;;;;;10.05;5.25;;;;;;;;;;5056838;28;20135;-87
2023/02/01 09:54:35;;;;;;;7.53;2.33;;;;;;;;;;5056668;28;20056;-86
2023/02/01 09:57:02;;;;;;;;;;;;;;;;;;5056043;28;20095;-87
2023/02/01 09:59:30;;;;;;;4.82;1.83;;;;;;;;;;5055604;28;19921;-87
2023/02/01 10:01:59;;;;;;;8.30;2.10;;;;;;;;;;5055386;28;20045;-87
2023/02/01 10:04:26;;;;;;;9.18;2.17;;;;;;;;;;5056287;28;20483;-87
2023/02/01 10:07:02;;;;;;;8.57;2.20;;;;;;;;;;5055264;28;20060;-87
2023/02/01 10:09:48;;;;;;;9.77;2.70;;;;;;;;;;5055454;28;20051;-87
2023/02/01 10:12:28;;;;;;;12.80;3.08;;;;;;;;;;5058316;28;20095;-88
2023/02/01 10:15:00;;;;;;;5.38;1.65;;;;;;;;;;5065758;28;20091;-87
2023/02/01 10:17:45;;;;;;;13.48;3.05;;;;;;;;;;5056198;28;20063;-86
2023/02/01 10:20:12;;;;;;;8.65;2.22;;;;;;;;;;5054746;28;20049;-86
2023/02/01 10:22:42;;;;;;;4.97;1.50;;;;;;;;;;5056146;28;20045;-86
2023/02/01 10:25:37;;;;;;;8.57;1.88;;;;;;;;;;5054941;28;20516;-87
2023/02/01 10:28:05;;;;;;;7.55;1.42;;;;;;;;;;5056068;28;20519;-87
2023/02/01 10:30:38;;;;;;;18.65;1.77;;;;;;;;;;5055968;28;20053;-85
2023/02/01 10:33:15;;;;;;;5.53;1.67;;;;;;;;;;5055975;28;20053;-85
2023/02/01 10:35:44;;;;;;;7.63;1.90;;;;;;;;;;5054583;28;20495;-84
2023/02/01 10:38:25;;;;;;;5.72;1.42;;;;;;;;;;5055926;28;20056;-86
2023/02/01 10:40:53;;;;;;;5.07;1.50;;;;;;;;;;5055755;28;20400;-86
2023/02/01 10:43:21;;;;;;;3.67;1.35;;;;;;;;;;5055687;28;20053;-86
2023/02/01 10:45:48;;;;;;;8.52;1.83;;;;;;;;;;5054452;28;20055;-86
2023/02/01 10:48:15;;;;;;;6.35;1.95;;;;;;;;;;5055540;28;20060;-87
2023/02/01 10:50:56;;;;;;;8.13;2.10;;;;;;;;;;5054668;28;20455;-87
2023/02/01 10:53:50;;;;;;;10.50;1.60;;;;;;;;;;5055515;28;20521;-87
2023/02/01 10:56:22;;;;;;;3.90;1.77;;;;;;;;;;5052935;28;20049;-86
2023/02/01 10:58:49;;;;;;;6.10;1.73;;;;;;;;;;5055258;28;20052;-86
2023/02/01 11:01:21;;;;;;;6.05;1.75;;;;;;;;;;5055451;28;20124;-87
2023/02/01 11:04:01;;;;;;;6.47;2.40;;;;;;;;;;5054279;28;20085;-86
2023/02/01 11:06:33;;;;;;;10.68;2.63;;;;;;;;;;5055384;28;20413;-86
2023/02/01 11:09:09;;;;;;;8.45;1.73;;;;;;;;;;5054236;28;20053;-87
2023/02/01 11:11:49;;;;;;;6.45;1.50;;;;;;;;;;5054086;28;20044;-87
2023/02/01 11:14:18;;;;;;;7.78;2.17;;;;;;;;;;5053900;28;20408;-87
2023/02/01 11:17:02;;;;;;;9.13;1.50;;;;;;;;;;5055058;28;20049;-87
2023/02/01 11:19:29;;;;;;;;;;;;;;;;;;5052502;28;20061;-85
2023/02/01 11:21:58;;;;;;;8.15;1.88;;;;;;;;;;5053377;28;20293;-86
2023/02/01 11:24:26;;;;;;;3.50;1.75;;;;;;;;;;5052226;28;20076;-87
2023/02/01 11:26:57;;;;;;;7.88;2.25;;;;;;;;;;5064589;28;20052;-86
2023/02/01 11:29:29;;;;;;;7.18;1.60;;;;;;;;;;5055273;28;20045;-85
2023/02/01 11:31:58;;;;;;;5.85;1.92;;;;;;;;;;5053559;28;20060;-84
2023/02/01 11:34:27;;;;;;;9.07;1.73;;;;;;;;;;5053207;28;20139;-87
2023/02/01 11:36:56;;;;;;;5.47;1.50;;;;;;;;;;5052541;28;20049;-87
2023/02/01 11:39:29;;;;;;;4.70;1.40;;;;;;;;;;5053551;28;20049;-84
2023/02/01 11:41:59;;;;;;;5.40;1.38;;;;;;;;;;5053600;28;20059;-85
2023/02/01 11:44:29;;;;;;;10.90;1.77;;;;;;;;;;5053359;28;20378;-87
2023/02/01 11:46:56;;;;;;;6.05;1.38;;;;;;;;;;5053332;28;20049;-87
2023/02/01 11:49:23;;;;;;;7.40;1.70;;;;;;;;;;5053164;28;20149;-88
2023/02/01 11:52:09;;;;;;;6.28;1.40;;;;;;;;;;5052953;28;20055;-87
2023/02/01 11:54:49;;;;;;;11.25;1.70;;;;;;;;;;5053241;28;20057;-88
2023/02/01 11:57:16;;;;;;;5.53;1.70;;;;;;;;;;5053577;28;20482;-87
2023/02/01 11:59:59;;;;;;;6.10;1.67;;;;;;;;;;5053372;28;20111;-86
2023/02/01 12:02:44;;;;;;;7.18;1.65;;;;;;;;;;5053138;28;20060;-88
2023/02/01 12:05:28;;;;;;;4.72;1.45;;;;;;;;;;5052952;28;20045;-88
2023/02/01 12:08:03;;;;;;;6.05;1.63;;;;;;;;;;5054193;28;20057;-87
2023/02/01 12:10:40;;;;;;;5.97;1.55;;;;;;;;;;5053102;28;20053;-87
2023/02/01 12:13:26;;;;;;;5.05;1.52;;;;;;;;;;5053257;28;20057;-88
2023/02/01 12:15:59;;;;;;;7.38;1.80;;;;;;;;;;5052781;28;20059;-87
2023/02/01 12:18:29;;;;;;;8.10;1.92;;;;;;;;;;5052988;28;20060;-87
2023/02/01 12:20:57;;;;;;;12.82;2.33;;;;;;;;;;5054118;28;20151;-89
2023/02/01 12:24:03;;;;;;;4.65;1.35;;;;;;;;;;5052961;28;20461;-88
2023/02/01 12:26:42;;;;;;;7.82;1.80;;;;;;;;;;4956161;28;20043;-86
2023/02/01 12:29:27;;;;;;;8.80;1.70;;;;;;;;;;4973154;28;20575;-87
2023/02/01 12:31:57;;;;;;;7.53;1.60;;;;;;;;;;5028361;28;20485;-87
2023/02/01 12:34:34;;;;;;;6.10;1.77;;;;;;;;;;5052463;28;20083;-87
2023/02/01 12:37:14;;;;;;;4.65;1.40;;;;;;;;;;5053490;28;20049;-89
2023/02/01 12:39:45;;;;;;;5.38;1.65;;;;;;;;;;5057463;28;20049;-87
2023/02/01 12:42:25;;;;;;;4.43;1.73;;;;;;;;;;5060765;28;20112;-87
2023/02/01 12:45:11;;;;;;;7.65;1.70;;;;;;;;;;5052096;28;20080;-88
2023/02/01 12:47:53;;;;;;;8.05;1.75;;;;;;;;;;5052485;28;20458;-87
2023/02/01 12:50:39;;;;;;;6.95;1.67;;;;;;;;;;5052197;28;20577;-87
2023/02/01 12:53:19;;;;;;;8.13;1.98;;;;;;;;;;5052259;28;20049;-87
2023/02/01 12:55:52;;;;;;;6.70;1.35;;;;;;;;;;5052062;28;20060;-86
2023/02/01 12:58:35;;;;;;;7.80;1.60;;;;;;;;;;5052381;28;20049;-86
2023/02/01 13:01:20;;;;;;;7.93;2.05;;;;;;;;;;5052230;28;20132;-87
2023/02/01 13:04:09;;;;;;;10.63;2.53;;;;;;;;;;5051801;28;20413;-87
2023/02/01 13:06:39;;;;;;;5.78;1.95;;;;;;;;;;5052205;28;20048;-87
2023/02/01 13:09:25;;;;;;;6.95;1.95;;;;;;;;;;5052133;28;20136;-88
2023/02/01 13:11:54;;;;;;;7.30;1.85;;;;;;;;;;5052307;28;20409;-87
2023/02/01 13:14:28;;;;;;;6.45;2.03;;;;;;;;;;5051446;28;20055;-87
2023/02/01 13:17:04;;;;;;;10.18;2.50;;;;;;;;;;5052861;28;20102;-87
2023/02/01 13:19:47;;;;;;;3.97;1.58;;;;;;;;;;5052773;28;20136;-88
2023/02/01 13:22:15;;;;;;;;;;;;;;;;;;5053389;28;20124;-86
2023/02/01 13:24:56;;;;;;;9.30;2.15;;;;;;;;;;5052616;28;19921;-86
2023/02/01 13:27:27;;;;;;;10.27;2.53;;;;;;;;;;5052759;28;20059;-86
2023/02/01 13:30:06;;;;;;;10.82;2.25;;;;;;;;;;5052496;28;20049;-86
2023/02/01 13:32:52;;;;;;;4.18;1.65;;;;;;;;;;5052540;28;20059;-86
2023/02/01 13:35:42;;;;;;;6.68;2.28;;;;;;;;;;5051520;28;20041;-85
2023/02/01 13:38:21;;;;;;;11.48;2.88;;;;;;;;;;5051439;28;20053;-85
2023/02/01 13:40:56;;;;;;;10.88;2.15;;;;;;;;;;5052781;28;20386;-86
2023/02/01 13:43:26;;;;;;;6.75;2.17;;;;;;;;;;5051316;28;20499;-86
2023/02/01 13:45:55;;;;;;;7.03;2.05;;;;;;;;;;5052174;28;20053;-85
2023/02/01 13:48:31;;;;;;;7.43;1.80;;;;;;;;;;5052088;28;20045;-86
2023/02/01 13:50:59;;;;;;;5.38;1.55;;;;;;;;;;5051928;28;20049;-86
2023/02/01 13:53:29;;;;;;;7.97;2.53;;;;;;;;;;5054678;28;20055;-85
2023/02/01 13:55:58;;;;;;;8.57;2.60;;;;;;;;;;5061037;28;20051;-86
2023/02/01 13:58:34;;;;;;;6.85;2.63;;;;;;;;;;5052323;28;20064;-85
2023/02/01 14:01:20;;;;;;;6.72;1.98;;;;;;;;;;5050810;28;20056;-85
2023/02/01 14:03:48;;;;;;;9.55;2.42;;;;;;;;;;5051196;28;20045;-85
2023/02/01 14:06:17;;;;;;;7.07;1.98;;;;;;;;;;5051638;28;20048;-83
2023/02/01 14:08:47;;;;;;;9.20;1.80;;;;;;;;;;5052182;28;20056;-85
2023/02/01 14:11:53;;;;;;;11.65;2.08;;;;;;;;;;5052225;28;20052;-85
2023/02/01 14:14:23;;;;;;;13.90;2.22;;;;;;;;;;4955568;28;20483;-85
2023/02/01 14:16:53;;;;;;;17.10;2.10;;;;;;;;;;4971168;28;20055;-85
2023/02/01 14:19:22;;;;;;;10.43;2.25;;;;;;;;;;5013953;28;20504;-85
2023/02/01 14:21:58;;;;;;;7.95;1.98;;;;;;;;;;5052029;28;20460;-86
2023/02/01 14:24:27;;;;;;;4.75;1.63;;;;;;;;;;5050896;28;20481;-85
2023/02/01 14:26:55;;;;;;;14.15;2.20;;;;;;;;;;5054972;28;20057;-85
2023/02/01 14:29:26;;;;;;;8.27;2.00;;;;;;;;;;5055743;28;20045;-86
2023/02/01 14:32:12;;;;;;;9.82;2.03;;;;;;;;;;5055704;28;20131;-86
2023/02/01 14:34:49;;;;;;;8.82;1.98;;;;;;;;;;5054378;28;20550;-85
2023/02/01 14:37:17;;;;;;;7.35;2.28;;;;;;;;;;5055359;28;20060;-85
2023/02/01 14:39:47;;;;;;;12.18;2.28;;;;;;;;;;5055257;28;20439;-86
2023/02/01 14:42:29;;;;;;;18.80;2.58;;;;;;;;;;5054212;28;20049;-83
2023/02/01 14:45:16;;;;;;;12.07;2.38;;;;;;;;;;5055262;28;20045;-86
2023/02/01 14:47:46;;;;;;;5.75;1.73;;;;;;;;;;5054055;28;20045;-85
2023/02/01 14:50:36;;;;;;;10.73;1.95;;;;;;;;;;5053998;28;20084;-85
2023/02/01 14:53:06;;;;;;;8.27;1.73;;;;;;;;;;5053986;28;20049;-85
2023/02/01 14:55:38;;;;;;;8.45;1.88;;;;;;;;;;5055121;28;20076;-85
2023/02/01 14:58:07;;;;;;;7.88;1.52;;;;;;;;;;5053948;28;20132;-86
2023/02/01 15:00:34;;;;;;;9.23;1.80;;;;;;;;;;5053901;28;20041;-85
2023/02/01 15:03:20;;;;;;;13.23;2.30;;;;;;;;;;5055049;28;20079;-86
2023/02/01 15:05:54;;;;;;;6.07;1.98;;;;;;;;;;5055375;28;20045;-85
2023/02/01 15:08:25;;;;;;;6.00;1.50;;;;;;;;;;5059260;28;20515;-85
2023/02/01 15:10:53;;;;;;;6.63;2.00;;;;;;;;;;5053849;28;20136;-85
2023/02/01 15:13:23;;;;;;;10.00;2.00;;;;;;;;;;5054927;28;20486;-85
2023/02/01 15:16:08;;;;;;;6.28;1.80;;;;;;;;;;5053498;28;20051;-85
2023/02/01 15:18:36;;;;;;;9.93;2.00;;;;;;;;;;5053363;28;20149;-86
2023/02/01 15:21:05;;;;;;;10.25;1.83;;;;;;;;;;5053576;28;20057;-87
2023/02/01 15:24:10;;;;;;;7.82;1.65;;;;;;;;;;5053843;28;20053;-85
2023/02/01 15:26:37;;;;;;;6.78;1.90;;;;;;;;;;5053132;28;20080;-85
2023/02/01 15:29:04;;;;;;;6.65;1.48;;;;;;;;;;5054332;28;20076;-85
2023/02/01 15:31:52;;;;;;;7.25;2.45;;;;;;;;;;5053245;28;20129;-85
2023/02/01 15:34:20;;;;;;;5.85;1.92;;;;;;;;;;5053195;28;20132;-85
2023/02/01 15:36:47;;;;;;;5.82;2.13;;;;;;;;;;5052217;28;20048;-84
2023/02/01 15:39:30;;;;;;;6.45;1.55;;;;;;;;;;5054449;28;20139;-85